createdAt,value
2022-12-15T00:02:22.113Z,14.03
2022-12-15T00:05:08.303Z,11.50
2022-12-15T00:07:54.588Z,13.00
2022-12-15T00:10:40.732Z,11.87
2022-12-15T00:13:30.812Z,12.03
2022-12-15T00:16:17.802Z,13.00
2022-12-15T00:19:06.114Z,14.03
2022-12-15T00:21:52.891Z,12.60
2022-12-15T00:24:38.966Z,12.00
2022-12-15T00:27:24.946Z,13.60
2022-12-15T00:30:11.226Z,14.17
2022-12-15T00:32:57.755Z,10.53
2022-12-15T00:35:44.891Z,8.80
2022-12-15T00:38:32.443Z,9.80
2022-12-15T00:41:01.610Z,9.27
2022-12-15T00:43:36.354Z,13.30
2022-12-15T00:46:22.801Z,12.23
2022-12-15T00:48:51.631Z,10.47
2022-12-15T00:51:42.027Z,10.47
2022-12-15T00:54:29.143Z,8.60
2022-12-15T00:57:14.687Z,12.53
2022-12-15T01:00:00.628Z,10.67
2022-12-15T01:02:47.201Z,17.33
2022-12-15T01:05:33.620Z,9.67
2022-12-15T01:08:22.011Z,14.73
2022-12-15T01:11:08.063Z,9.97
2022-12-15T01:13:53.707Z,14.13
2022-12-15T01:16:40.146Z,9.30
2022-12-15T01:19:27.745Z,10.50
2022-12-15T01:21:56.810Z,17.20
2022-12-15T01:24:26.879Z,8.87
2022-12-15T01:26:57.688Z,9.10
2022-12-15T01:29:27.419Z,10.90
2022-12-15T01:31:55.916Z,13.27
2022-12-15T01:34:25.720Z,12.03
2022-12-15T01:36:54.606Z,12.63
2022-12-15T01:39:23.194Z,10.60
2022-12-15T01:41:52.192Z,13.73
2022-12-15T01:44:23.954Z,8.13
2022-12-15T01:46:55.599Z,12.13
2022-12-15T01:49:29.945Z,12.67
2022-12-15T01:52:01.882Z,9.37
2022-12-15T01:54:34.663Z,8.53
2022-12-15T01:57:08.826Z,12.83
2022-12-15T01:59:43.492Z,12.13
2022-12-15T02:02:14.416Z,9.27
2022-12-15T02:04:43.345Z,10.80
2022-12-15T02:07:14.979Z,11.30
2022-12-15T02:09:45.166Z,10.30
2022-12-15T02:12:28.287Z,13.87
2022-12-15T02:15:19.199Z,11.90
2022-12-15T02:17:58.785Z,11.30
2022-12-15T02:20:47.892Z,11.53
2022-12-15T02:23:58.707Z,10.97
2022-12-15T02:27:10.306Z,9.53
2022-12-15T02:30:10.847Z,13.30
2022-12-15T02:32:44.683Z,9.67
2022-12-15T02:35:21.652Z,11.13
2022-12-15T02:37:51.296Z,9.40
2022-12-15T02:40:19.775Z,8.90
2022-12-15T02:42:59.122Z,10.37
2022-12-15T02:45:35.582Z,9.67
2022-12-15T02:48:13.939Z,11.48
2022-12-15T02:51:05.985Z,10.83
2022-12-15T02:53:58.480Z,8.93
2022-12-15T02:56:33.724Z,8.77
2022-12-15T02:59:11.226Z,9.93
2022-12-15T03:01:47.331Z,10.70
2022-12-15T03:04:20.332Z,10.13
2022-12-15T03:07:00.789Z,12.32
2022-12-15T03:09:32.514Z,10.45
2022-12-15T03:12:02.059Z,13.15
2022-12-15T03:14:31.179Z,11.13
2022-12-15T03:17:02.342Z,14.73
2022-12-15T03:19:30.796Z,6.97
2022-12-15T03:22:00.152Z,9.77
2022-12-15T03:24:28.781Z,13.40
2022-12-15T03:26:58.488Z,13.60
2022-12-15T03:29:26.944Z,6.23
2022-12-15T03:31:56.550Z,9.53
2022-12-15T03:34:26.834Z,10.00
2022-12-15T03:36:57.760Z,10.27
2022-12-15T03:39:27.485Z,6.83
2022-12-15T03:41:56.512Z,13.20
2022-12-15T03:44:25.091Z,10.20
2022-12-15T03:47:01.294Z,9.83
2022-12-15T03:49:33.213Z,10.67
2022-12-15T03:52:01.874Z,10.80
2022-12-15T03:54:30.941Z,14.60
2022-12-15T03:57:00.353Z,13.00
2022-12-15T03:59:32.664Z,18.03
2022-12-15T04:02:03.466Z,10.45
2022-12-15T04:04:33.761Z,10.53
2022-12-15T04:07:02.515Z,10.50
2022-12-15T04:09:31.216Z,10.13
2022-12-15T04:12:00.524Z,8.70
2022-12-15T04:14:29.167Z,7.63
2022-12-15T04:16:58.598Z,9.45
2022-12-15T04:19:45.964Z,7.37
2022-12-15T04:22:18.114Z,8.65
2022-12-15T04:25:04.752Z,9.90
2022-12-15T04:27:51.047Z,9.90
2022-12-15T04:30:37.557Z,3.50
2022-12-15T04:33:30.909Z,7.57
2022-12-15T04:36:18.605Z,6.75
2022-12-15T04:39:07.067Z,14.13
2022-12-15T04:41:52.847Z,11.07
2022-12-15T04:44:39.390Z,14.90
2022-12-15T04:47:25.244Z,16.90
2022-12-15T04:50:11.163Z,10.03
2022-12-15T04:52:57.876Z,11.68
2022-12-15T04:55:46.036Z,8.40
2022-12-15T04:58:32.952Z,7.47
2022-12-15T05:01:18.970Z,11.40
2022-12-15T05:04:05.220Z,8.80
2022-12-15T05:06:51.558Z,12.83
2022-12-15T05:09:37.134Z,13.07
2022-12-15T05:12:27.388Z,14.80
2022-12-15T05:15:13.114Z,11.43
2022-12-15T05:17:59.720Z,12.90
2022-12-15T05:20:45.296Z,14.27
2022-12-15T05:23:37.771Z,14.00
2022-12-15T05:26:24.554Z,15.53
2022-12-15T05:29:12.797Z,13.83
2022-12-15T05:32:04.367Z,13.00
2022-12-15T05:34:38.545Z,14.07
2022-12-15T05:37:09.083Z,11.30
2022-12-15T05:39:39.333Z,11.27
2022-12-15T05:42:08.505Z,11.60
2022-12-15T05:44:40.312Z,10.43
2022-12-15T05:47:09.798Z,14.73
2022-12-15T05:49:39.424Z,9.67
2022-12-15T05:52:08.576Z,11.70
2022-12-15T05:54:37.777Z,15.33
2022-12-15T05:57:07.381Z,8.00
2022-12-15T05:59:37.437Z,9.90
2022-12-15T06:02:06.001Z,7.10
2022-12-15T06:04:36.660Z,10.27
2022-12-15T06:07:05.123Z,11.18
2022-12-15T06:09:33.530Z,8.40
2022-12-15T06:12:02.725Z,10.60
2022-12-15T06:14:32.400Z,8.63
2022-12-15T06:17:02.837Z,12.30
2022-12-15T06:19:33.664Z,11.83
2022-12-15T06:22:02.938Z,9.27
2022-12-15T06:24:31.171Z,14.30
2022-12-15T06:27:00.244Z,18.43
2022-12-15T06:29:29.435Z,12.60
2022-12-15T06:31:58.127Z,14.47
2022-12-15T06:34:28.817Z,10.30
2022-12-15T06:36:57.302Z,13.30
2022-12-15T06:39:26.146Z,13.40
2022-12-15T06:41:55.006Z,12.80
2022-12-15T06:44:23.529Z,16.07
2022-12-15T06:46:54.792Z,13.23
2022-12-15T06:49:23.362Z,15.37
2022-12-15T06:51:54.002Z,20.40
2022-12-15T06:54:22.939Z,15.57
2022-12-15T06:56:51.730Z,13.87
2022-12-15T06:59:20.353Z,15.20
2022-12-15T07:01:49.893Z,15.70
2022-12-15T07:04:19.146Z,17.80
2022-12-15T07:06:47.723Z,13.33
2022-12-15T07:09:18.775Z,15.07
2022-12-15T07:11:50.828Z,16.37
2022-12-15T07:14:20.033Z,14.50
2022-12-15T07:16:49.542Z,13.03
2022-12-15T07:19:18.867Z,15.27
2022-12-15T07:21:48.113Z,15.43
2022-12-15T07:24:18.180Z,12.27
2022-12-15T07:26:48.857Z,15.87
2022-12-15T07:29:23.226Z,14.00
2022-12-15T07:31:52.319Z,16.37
2022-12-15T07:34:20.791Z,13.37
2022-12-15T07:36:52.437Z,19.60
2022-12-15T07:39:22.978Z,15.20
2022-12-15T07:41:51.910Z,10.87
2022-12-15T07:44:21.517Z,12.80
2022-12-15T07:46:52.506Z,12.63
2022-12-15T07:49:21.961Z,12.97
2022-12-15T07:51:51.747Z,15.70
2022-12-15T07:54:21.048Z,14.37
2022-12-15T07:56:50.899Z,16.90
2022-12-15T07:59:20.135Z,15.53
2022-12-15T08:01:51.533Z,18.43
2022-12-15T08:04:22.664Z,21.80
2022-12-15T08:06:51.508Z,17.80
2022-12-15T08:09:21.408Z,21.53
2022-12-15T08:11:52.066Z,18.97
2022-12-15T08:14:21.425Z,15.13
2022-12-15T08:16:55.323Z,17.67
2022-12-15T08:19:23.939Z,17.90
2022-12-15T08:21:52.517Z,19.90
2022-12-15T08:24:21.202Z,17.10
2022-12-15T08:26:53.171Z,16.37
2022-12-15T08:29:50.000Z,23.00
2022-12-15T08:32:14.392Z,17.20
2022-12-15T08:34:44.041Z,12.40
2022-12-15T08:37:14.231Z,13.83
2022-12-15T08:39:42.553Z,20.30
2022-12-15T08:42:13.638Z,13.33
2022-12-15T08:44:42.087Z,11.60
2022-12-15T08:47:11.750Z,14.43
2022-12-15T08:49:41.438Z,12.83
2022-12-15T08:52:10.617Z,13.20
2022-12-15T08:54:39.323Z,13.33
2022-12-15T08:57:08.178Z,17.97
2022-12-15T08:59:38.297Z,14.60
2022-12-15T09:02:08.033Z,13.90
2022-12-15T09:04:38.233Z,12.43
2022-12-15T09:07:07.666Z,13.57
2022-12-15T09:09:36.466Z,14.00
2022-12-15T09:12:05.060Z,14.00
2022-12-15T09:14:33.893Z,37.60
2022-12-15T09:17:05.200Z,17.37
2022-12-15T09:19:35.252Z,20.50
2022-12-15T09:22:07.966Z,15.17
2022-12-15T09:24:36.556Z,17.83
2022-12-15T09:27:05.549Z,17.80
2022-12-15T09:29:35.869Z,15.30
2022-12-15T09:32:12.132Z,15.87
2022-12-15T09:34:43.923Z,26.40
2022-12-15T09:37:13.259Z,38.53
2022-12-15T09:39:46.652Z,25.40
2022-12-15T09:42:25.000Z,21.13
2022-12-15T09:45:01.888Z,23.27
2022-12-15T09:47:41.628Z,18.50
2022-12-15T09:50:13.482Z,22.07
2022-12-15T09:52:49.115Z,22.87
2022-12-15T09:55:24.602Z,22.00
2022-12-15T09:57:55.742Z,19.47
2022-12-15T10:00:26.435Z,34.27
2022-12-15T10:03:34.465Z,20.93
2022-12-15T10:06:18.387Z,21.90
2022-12-15T10:09:01.663Z,18.27
2022-12-15T10:11:48.554Z,24.10
2022-12-15T10:14:28.632Z,23.73
2022-12-15T10:17:06.389Z,21.43
2022-12-15T10:19:42.057Z,19.97
2022-12-15T10:22:15.224Z,22.60
2022-12-15T10:25:09.319Z,23.13
2022-12-15T10:27:46.568Z,18.13
2022-12-15T10:30:18.172Z,20.37
2022-12-15T10:32:53.717Z,19.80
2022-12-15T10:35:27.648Z,20.10
2022-12-15T10:38:00.826Z,22.83
2022-12-15T10:43:38.144Z,20.53
2022-12-15T10:46:16.357Z,22.07
2022-12-15T10:48:49.847Z,18.60
2022-12-15T10:51:28.777Z,18.47
2022-12-15T10:54:07.191Z,23.23
2022-12-15T10:56:37.334Z,19.10
2022-12-15T10:59:25.662Z,18.20
2022-12-15T11:01:55.216Z,15.07
2022-12-15T11:04:29.414Z,19.40
2022-12-15T11:07:00.422Z,19.67
2022-12-15T11:09:35.075Z,15.13
2022-12-15T11:12:37.303Z,17.43
2022-12-15T11:15:45.711Z,20.17
2022-12-15T11:18:45.571Z,11.40
2022-12-15T11:21:26.064Z,13.60
2022-12-15T11:24:05.413Z,19.37
2022-12-15T11:26:47.054Z,23.20
2022-12-15T11:29:34.460Z,13.73
2022-12-15T11:32:55.100Z,23.47
2022-12-15T11:35:34.662Z,22.13
2022-12-15T11:38:15.740Z,23.70
2022-12-15T11:40:46.055Z,22.17
2022-12-15T11:43:44.505Z,20.77
2022-12-15T11:46:22.853Z,19.77
2022-12-15T11:49:17.697Z,24.83
2022-12-15T11:51:53.377Z,20.40
2022-12-15T11:54:29.207Z,20.47
2022-12-15T11:57:37.374Z,26.10
2022-12-15T12:00:10.383Z,17.97
2022-12-15T12:03:09.412Z,22.33
2022-12-15T12:05:51.859Z,17.40
2022-12-15T12:09:05.311Z,23.93
2022-12-15T12:11:43.710Z,17.10
2022-12-15T12:14:28.257Z,19.27
2022-12-15T12:17:05.373Z,19.00
2022-12-15T12:19:40.360Z,19.73
2022-12-15T12:22:17.127Z,23.70
2022-12-15T12:24:52.732Z,21.70
2022-12-15T12:27:30.861Z,20.13
2022-12-15T12:30:05.837Z,22.73
2022-12-15T12:32:43.623Z,21.20
2022-12-15T12:35:30.945Z,21.27
2022-12-15T12:38:04.780Z,23.03
2022-12-15T12:40:47.277Z,23.30
2022-12-15T12:43:28.807Z,19.00
2022-12-15T12:46:03.805Z,19.60
2022-12-15T12:48:37.990Z,24.37
2022-12-15T12:51:19.209Z,21.97
2022-12-15T12:53:48.611Z,18.67
2022-12-15T12:56:40.919Z,7.10
2022-12-15T12:59:39.376Z,22.63
2022-12-15T13:02:50.551Z,18.60
2022-12-15T13:05:31.726Z,13.53
2022-12-15T13:08:51.773Z,22.23
2022-12-15T13:11:58.103Z,25.60
2022-12-15T13:14:38.090Z,22.33
2022-12-15T13:17:28.372Z,24.47
2022-12-15T13:20:27.754Z,29.67
2022-12-15T13:23:33.073Z,26.80
2022-12-15T13:26:21.014Z,17.63
2022-12-15T13:28:53.579Z,10.47
2022-12-15T13:31:42.151Z,8.07
2022-12-15T13:34:27.250Z,20.73
2022-12-15T13:37:03.065Z,20.93
2022-12-15T13:39:51.853Z,24.67
2022-12-15T13:42:51.274Z,19.37
2022-12-15T13:45:48.854Z,16.60
2022-12-15T13:48:39.426Z,17.80
2022-12-15T13:51:35.502Z,20.60
2022-12-15T13:54:16.783Z,18.07
2022-12-15T13:56:55.894Z,17.90
2022-12-15T13:59:39.185Z,19.13
2022-12-15T14:02:26.455Z,20.37
2022-12-15T14:05:17.628Z,21.50
2022-12-15T14:07:54.368Z,25.30
2022-12-15T14:10:26.514Z,42.40
2022-12-15T14:12:58.148Z,39.53
2022-12-15T14:15:36.645Z,26.57
2022-12-15T14:18:07.923Z,21.13
2022-12-15T14:20:42.706Z,22.77
2022-12-15T14:23:22.608Z,28.17
2022-12-15T14:25:56.018Z,18.43
2022-12-15T14:28:30.459Z,22.10
2022-12-15T14:31:06.842Z,23.27
2022-12-15T14:33:39.822Z,21.13
2022-12-15T14:36:14.223Z,20.37
2022-12-15T14:38:51.489Z,13.40
2022-12-15T14:41:24.019Z,20.83
2022-12-15T14:44:36.680Z,17.07
2022-12-15T14:46:51.097Z,24.27
2022-12-15T14:49:23.377Z,20.77
2022-12-15T14:51:54.856Z,14.73
2022-12-15T14:54:35.830Z,17.27
2022-12-15T14:57:15.875Z,15.03
2022-12-15T14:59:49.466Z,16.00
2022-12-15T15:02:25.246Z,18.93
2022-12-15T15:03:06.720Z,22.97
2022-12-15T15:05:24.535Z,18.80
2022-12-15T15:07:59.093Z,17.93
2022-12-15T15:10:31.601Z,20.37
2022-12-15T15:13:04.691Z,20.50
2022-12-15T15:15:33.783Z,17.17
2022-12-15T15:18:05.900Z,15.33
2022-12-15T15:20:36.701Z,15.00
2022-12-15T15:23:17.915Z,14.20
2022-12-15T15:25:52.821Z,17.00
2022-12-15T15:28:27.020Z,14.07
2022-12-15T15:30:57.640Z,18.30
2022-12-15T15:33:29.349Z,13.93
2022-12-15T15:36:01.114Z,14.47
2022-12-15T15:38:35.030Z,14.93
2022-12-15T15:41:17.212Z,9.43
2022-12-15T15:43:49.488Z,17.40
2022-12-15T15:46:22.801Z,14.87
2022-12-15T15:48:55.455Z,15.30
2022-12-15T15:51:27.276Z,15.80
2022-12-15T15:54:01.002Z,11.93
2022-12-15T15:56:31.520Z,12.23
2022-12-15T15:59:04.287Z,13.80
2022-12-15T16:01:34.164Z,15.53
2022-12-15T16:04:08.116Z,15.10
2022-12-15T16:06:46.671Z,14.03
2022-12-15T16:09:16.911Z,12.40
2022-12-15T16:11:46.891Z,15.27
2022-12-15T16:14:19.130Z,13.97
2022-12-15T16:16:49.156Z,13.10
2022-12-15T16:19:19.413Z,16.03
2022-12-15T16:21:52.116Z,16.97
2022-12-15T16:24:21.666Z,14.70
2022-12-15T16:26:52.678Z,15.50
2022-12-15T16:29:22.564Z,14.80
2022-12-15T16:31:51.378Z,15.33
2022-12-15T16:34:22.176Z,15.50
2022-12-15T16:36:55.434Z,13.60
2022-12-15T16:39:28.366Z,14.20
2022-12-15T16:41:57.806Z,13.10
2022-12-15T16:44:28.555Z,13.40
2022-12-15T16:46:58.980Z,15.93
2022-12-15T16:49:36.539Z,15.80
2022-12-15T16:52:10.976Z,15.40
2022-12-15T16:54:41.816Z,13.33
2022-12-15T16:57:13.309Z,16.07
2022-12-15T16:59:46.457Z,13.73
2022-12-15T17:02:27.458Z,12.70
2022-12-15T17:04:58.640Z,16.70
2022-12-15T17:07:29.580Z,14.10
2022-12-15T17:10:01.359Z,14.93
2022-12-15T17:12:31.928Z,11.93
2022-12-15T17:15:03.330Z,12.20
2022-12-15T17:17:32.357Z,12.10
2022-12-15T17:20:28.602Z,12.73
2022-12-15T17:22:57.297Z,10.00
2022-12-15T17:26:00.751Z,11.00
2022-12-15T17:28:25.457Z,16.33
2022-12-15T17:30:54.658Z,14.03
2022-12-15T17:33:26.077Z,18.43
2022-12-15T17:35:58.791Z,18.70
2022-12-15T17:38:27.891Z,12.40
2022-12-15T17:40:59.058Z,11.80
2022-12-15T17:43:35.424Z,12.70
2022-12-15T17:46:05.776Z,13.00
2022-12-15T17:48:35.040Z,12.50
2022-12-15T17:51:15.135Z,11.90
2022-12-15T17:53:45.913Z,12.50
2022-12-15T17:56:18.646Z,12.60
2022-12-15T17:58:46.923Z,13.90
2022-12-15T18:01:15.753Z,16.20
2022-12-15T18:03:45.724Z,18.47
2022-12-15T18:06:16.796Z,17.33
2022-12-15T18:08:49.174Z,16.83
2022-12-15T18:11:18.642Z,13.50
2022-12-15T18:13:48.600Z,14.90
2022-12-15T18:17:07.632Z,16.40
2022-12-15T18:19:36.671Z,13.93
2022-12-15T18:22:11.351Z,15.60
2022-12-15T18:24:40.061Z,14.73
2022-12-15T18:27:23.727Z,20.40
2022-12-15T18:29:54.408Z,13.30
2022-12-15T18:32:26.733Z,11.40
2022-12-15T18:35:23.779Z,8.80
2022-12-15T18:37:54.329Z,15.40
2022-12-15T18:40:28.329Z,14.43
2022-12-15T18:42:58.204Z,12.67
2022-12-15T18:45:28.563Z,18.17
2022-12-15T18:47:57.970Z,10.57
2022-12-15T18:50:31.044Z,10.80
2022-12-15T18:53:04.208Z,10.47
2022-12-15T18:55:34.086Z,13.60
2022-12-15T18:58:03.119Z,9.57
2022-12-15T19:00:32.695Z,9.23
2022-12-15T19:03:02.114Z,15.10
2022-12-15T19:05:37.161Z,9.30
2022-12-15T19:08:14.542Z,9.80
2022-12-15T19:10:51.184Z,11.13
2022-12-15T19:13:22.794Z,9.03
2022-12-15T19:15:52.314Z,11.40
2022-12-15T19:18:40.382Z,11.50
2022-12-15T19:21:34.091Z,11.67
2022-12-15T19:24:07.148Z,12.27
2022-12-15T19:26:36.052Z,8.13
2022-12-15T19:29:20.096Z,12.87
2022-12-15T19:31:49.210Z,15.40
2022-12-15T19:42:31.363Z,11.67
2022-12-15T19:45:02.026Z,13.93
2022-12-15T19:47:31.139Z,14.07
2022-12-15T19:49:59.851Z,14.07
2022-12-15T19:52:29.845Z,15.10
2022-12-15T19:54:58.488Z,11.93
2022-12-15T19:57:31.031Z,12.93
2022-12-15T20:00:00.723Z,13.57
2022-12-15T20:02:29.628Z,15.00
2022-12-15T20:04:58.726Z,14.80
2022-12-15T20:07:31.250Z,12.87
2022-12-15T20:10:01.696Z,13.60
2022-12-15T20:12:36.411Z,9.87
2022-12-15T20:15:16.067Z,10.73
2022-12-15T20:17:45.301Z,10.03
2022-12-15T20:20:18.750Z,12.03
2022-12-15T20:22:51.191Z,10.83
2022-12-15T20:25:22.750Z,15.00
2022-12-15T20:27:52.944Z,13.33
2022-12-15T20:30:23.705Z,8.10
2022-12-15T20:32:52.806Z,7.90
2022-12-15T20:35:23.435Z,9.87
2022-12-15T20:37:53.350Z,9.37
2022-12-15T20:40:24.234Z,7.53
2022-12-15T20:42:58.143Z,13.17
2022-12-15T20:45:28.816Z,11.53
2022-12-15T20:48:00.363Z,9.03
2022-12-15T20:50:37.801Z,13.30
2022-12-15T20:53:17.410Z,11.77
2022-12-15T20:55:46.945Z,10.93
2022-12-15T20:58:18.458Z,12.97
2022-12-15T21:00:48.503Z,9.13
2022-12-15T21:03:21.209Z,11.77
2022-12-15T21:05:51.790Z,11.17
2022-12-15T21:08:24.707Z,11.30
2022-12-15T21:10:54.966Z,12.67
2022-12-15T21:13:28.294Z,10.30
2022-12-15T21:16:01.069Z,12.20
2022-12-15T21:19:10.849Z,18.07
2022-12-15T21:21:21.419Z,12.53
2022-12-15T21:23:50.984Z,11.37
2022-12-15T21:26:22.955Z,13.87
2022-12-15T21:28:57.700Z,14.27
2022-12-15T21:31:27.508Z,20.53
2022-12-15T21:33:56.751Z,13.33
2022-12-15T21:36:25.450Z,11.47
2022-12-15T21:38:55.012Z,12.37
2022-12-15T21:41:24.532Z,15.77
2022-12-15T21:43:54.919Z,12.43
2022-12-15T21:46:28.978Z,16.90
2022-12-15T21:49:18.809Z,9.20
2022-12-15T21:51:49.966Z,16.90
2022-12-15T21:54:27.418Z,5.40
2022-12-15T21:57:03.214Z,10.13
2022-12-15T21:59:34.358Z,12.23
2022-12-15T22:02:21.276Z,11.87
2022-12-15T22:04:52.337Z,18.27
2022-12-15T22:07:21.920Z,23.03
2022-12-15T22:09:51.942Z,12.93
2022-12-15T22:12:23.946Z,11.47
2022-12-15T22:14:55.173Z,9.00
2022-12-15T22:17:25.249Z,7.27
2022-12-15T22:19:57.123Z,14.20
2022-12-15T22:22:31.598Z,16.10
2022-12-15T22:25:00.974Z,11.63
2022-12-15T22:27:33.736Z,12.83
2022-12-15T22:30:04.685Z,18.88
2022-12-15T22:32:33.779Z,8.98
2022-12-15T22:35:02.687Z,8.60
2022-12-15T22:37:31.435Z,9.27
2022-12-15T22:40:00.843Z,6.10
2022-12-15T22:42:31.955Z,6.47
2022-12-15T22:45:00.671Z,7.80
2022-12-15T22:47:35.625Z,13.50
2022-12-15T22:50:05.706Z,10.90
2022-12-15T22:52:34.328Z,10.82
2022-12-15T22:55:03.902Z,8.00
2022-12-15T22:57:33.748Z,10.13
2022-12-15T23:00:06.337Z,9.20
2022-12-15T23:02:39.567Z,11.73
2022-12-15T23:05:09.181Z,10.45
2022-12-15T23:07:38.196Z,16.17
2022-12-15T23:10:25.392Z,6.82
2022-12-15T23:12:54.702Z,8.20
2022-12-15T23:15:41.364Z,13.02
2022-12-15T23:18:16.698Z,8.52
2022-12-15T23:20:46.078Z,7.88
2022-12-15T23:23:15.776Z,12.23
2022-12-15T23:25:47.014Z,12.88
2022-12-15T23:28:16.237Z,12.55
2022-12-15T23:30:50.512Z,14.00
2022-12-15T23:33:21.243Z,8.88
2022-12-15T23:35:50.723Z,17.67
2022-12-15T23:38:21.036Z,7.43
2022-12-15T23:40:53.319Z,11.40
2022-12-15T23:43:22.450Z,12.23
2022-12-15T23:45:58.592Z,11.23
2022-12-15T23:48:31.660Z,12.40
2022-12-15T23:51:11.948Z,8.10
2022-12-15T23:53:42.199Z,11.20
2022-12-15T23:56:13.539Z,11.52
2022-12-15T23:58:45.155Z,11.50
